Time;durP1;ratioP1;P1;durP2;ratioP2;P2;SDS_P1;SDS_P2;PMS_P1;PMS_P2;Temp;Humidity;BMP_temperature;BMP_pressure;BME280_temperature;BME280_humidity;BME280_pressure;Samples;Min_cycle;Max_cycle;Signal;HPM_P1;HPM_P2
2023/01/31 00:01:07;;;;;;;28.40;4.30;;;4.90;99.90;;;;;;5018225;28;20029;-61
2023/01/31 00:03:33;;;;;;;30.80;4.60;;;4.80;99.90;;;;;;5027063;28;20053;-62
2023/01/31 00:06:15;;;;;;;18.05;4.57;;;4.90;99.90;;;;;;5024894;28;20061;-61
2023/01/31 00:08:41;;;;;;;32.63;5.30;;;5.00;99.90;;;;;;5026158;28;20056;-61
2023/01/31 00:11:07;;;;;;;26.08;5.22;;;5.00;99.90;;;;;;5025588;28;20064;-60
2023/01/31 00:13:33;;;;;;;24.60;5.00;;;5.10;99.90;;;;;;5028156;28;20057;-63
2023/01/31 00:15:58;;;;;;;32.28;5.65;;;5.00;99.90;;;;;;5025174;28;20037;-61
2023/01/31 00:18:24;;;;;;;31.48;5.55;;;5.10;99.90;;;;;;5024067;28;20124;-62
2023/01/31 00:20:50;;;;;;;29.75;5.70;;;5.10;99.90;;;;;;5028106;28;20052;-58
2023/01/31 00:23:16;;;;;;;24.20;5.40;;;5.10;99.90;;;;;;5029661;28;20030;-62
2023/01/31 00:25:41;;;;;;;27.55;5.30;;;5.00;99.90;;;;;;5026750;28;20040;-58
2023/01/31 00:28:07;;;;;;;28.33;5.25;;;5.00;99.90;;;;;;5026002;28;20047;-57
2023/01/31 00:30:32;;;;;;;25.83;4.05;;;4.90;99.90;;;;;;5024046;28;20040;-59
2023/01/31 00:32:58;;;;;;;21.80;6.07;;;4.80;99.90;;;;;;5033923;28;20511;-62
2023/01/31 00:35:24;;;;;;;23.15;5.05;;;4.80;99.90;;;;;;5021510;28;20029;-62
2023/01/31 00:37:49;;;;;;;27.38;4.88;;;4.80;99.90;;;;;;5021330;28;20053;-59
2023/01/31 00:40:15;;;;;;;32.03;5.65;;;4.70;99.90;;;;;;5023961;28;20021;-57
2023/01/31 00:42:42;;;;;;;25.73;4.57;;;4.70;99.90;;;;;;5026938;28;20042;-62
2023/01/31 00:45:08;;;;;;;29.15;5.40;;;4.70;99.90;;;;;;5025558;28;20050;-61
2023/01/31 00:47:34;;;;;;;29.67;5.63;;;4.70;99.90;;;;;;5028286;28;20080;-60
2023/01/31 00:49:59;;;;;;;28.05;5.20;;;4.50;99.90;;;;;;5027013;28;20037;-62
2023/01/31 00:52:25;;;;;;;22.85;5.70;;;4.60;99.90;;;;;;5026781;28;20090;-62
2023/01/31 00:54:51;;;;;;;29.55;5.32;;;4.60;99.90;;;;;;5025475;28;20036;-56
2023/01/31 00:57:16;;;;;;;32.47;5.72;;;4.60;99.90;;;;;;5028382;28;20126;-60
2023/01/31 00:59:42;;;;;;;24.23;5.88;;;4.60;99.90;;;;;;5029166;28;20030;-62
2023/01/31 01:02:07;;;;;;;28.45;6.60;;;4.70;99.90;;;;;;5026995;28;20060;-60
2023/01/31 01:04:33;;;;;;;26.73;5.75;;;4.70;99.90;;;;;;5022161;28;20048;-58
2023/01/31 01:06:58;;;;;;;24.40;6.38;;;4.70;99.90;;;;;;5028302;28;20041;-62
2023/01/31 01:09:24;;;;;;;23.05;6.43;;;4.60;99.90;;;;;;5028504;28;20036;-60
2023/01/31 01:11:50;;;;;;;22.17;5.10;;;4.60;99.90;;;;;;5028426;28;20729;-60
2023/01/31 01:14:16;;;;;;;35.90;5.97;;;4.60;99.90;;;;;;5018363;28;20082;-60
2023/01/31 01:16:41;;;;;;;25.88;5.65;;;4.60;99.90;;;;;;5026740;28;20037;-57
2023/01/31 01:19:11;;;;;;;22.98;5.53;;;4.60;99.90;;;;;;5026990;28;20049;-60
2023/01/31 01:21:37;;;;;;;28.92;5.55;;;4.50;99.90;;;;;;5019087;28;20084;-59
2023/01/31 01:24:05;;;;;;;20.50;4.30;;;4.60;99.90;;;;;;5022310;28;20029;-62
2023/01/31 01:26:32;;;;;;;30.17;5.00;;;4.50;99.90;;;;;;5027453;28;20400;-59
2023/01/31 01:28:59;;;;;;;29.52;5.05;;;4.50;99.90;;;;;;5027110;28;20107;-60
2023/01/31 01:31:28;;;;;;;23.92;5.53;;;4.50;99.90;;;;;;5031196;28;20488;-61
2023/01/31 01:33:56;;;;;;;25.65;5.00;;;4.60;99.90;;;;;;5019167;28;20044;-59
2023/01/31 01:36:24;;;;;;;26.20;5.45;;;4.70;99.90;;;;;;5022293;28;20049;-62
2023/01/31 01:38:51;;;;;;;24.52;5.28;;;4.60;99.90;;;;;;5026670;28;20041;-61
2023/01/31 01:41:18;;;;;;;23.33;5.05;;;4.70;99.90;;;;;;5032063;28;20061;-60
2023/01/31 01:43:48;;;;;;;28.25;4.70;;;4.70;99.90;;;;;;5025720;28;20084;-61
2023/01/31 01:46:39;;;;;;;27.40;4.85;;;4.70;99.90;;;;;;5027262;28;20030;-62
2023/01/31 01:49:19;;;;;;;20.77;4.80;;;4.60;99.90;;;;;;5022635;28;20034;-60
2023/01/31 01:51:47;;;;;;;19.65;4.25;;;4.60;99.90;;;;;;5026997;28;20049;-60
2023/01/31 01:54:20;;;;;;;29.30;4.88;;;4.60;99.90;;;;;;5027658;28;20053;-62
2023/01/31 01:56:48;;;;;;;;;;;4.50;99.90;;;;;;5026113;28;20498;-62
2023/01/31 01:59:25;;;;;;;22.50;4.90;;;4.40;99.90;;;;;;5026087;28;20006;-57
2023/01/31 02:01:53;;;;;;;26.40;4.85;;;4.30;99.90;;;;;;5023312;28;20037;-60
2023/01/31 02:04:24;;;;;;;22.35;5.32;;;4.20;99.90;;;;;;5026082;28;20033;-61
2023/01/31 02:06:50;;;;;;;19.27;4.15;;;4.20;99.90;;;;;;5023516;28;20496;-63
2023/01/31 02:09:30;;;;;;;23.23;5.57;;;4.00;99.90;;;;;;5025150;28;20505;-59
2023/01/31 02:11:57;;;;;;;23.95;4.60;;;4.00;99.90;;;;;;5018866;28;20036;-60
2023/01/31 02:14:24;;;;;;;24.98;5.63;;;4.10;99.90;;;;;;5025766;28;20122;-62
2023/01/31 02:16:49;;;;;;;29.02;5.20;;;4.10;99.90;;;;;;5025485;28;20041;-62
2023/01/31 02:19:23;;;;;;;22.30;4.40;;;4.00;99.90;;;;;;5023522;28;20060;-62
2023/01/31 02:22:05;;;;;;;20.15;4.50;;;4.10;99.90;;;;;;5023936;28;20039;-60
2023/01/31 02:24:46;;;;;;;22.85;4.38;;;4.00;99.90;;;;;;5014144;28;20552;-60
2023/01/31 02:27:33;;;;;;;23.55;4.90;;;4.10;99.90;;;;;;5026260;28;20076;-63
2023/01/31 02:30:23;;;;;;;21.02;5.07;;;4.00;99.90;;;;;;5024801;28;20039;-59
2023/01/31 02:33:15;;;;;;;20.75;5.15;;;4.00;99.90;;;;;;5025096;28;20543;-59
2023/01/31 02:36:09;;;;;;;24.38;4.75;;;3.90;99.90;;;;;;5025715;28;20045;-63
2023/01/31 02:38:58;;;;;;;29.65;4.72;;;3.90;99.90;;;;;;5013341;28;20030;-61
2023/01/31 02:41:36;;;;;;;25.00;4.85;;;4.00;99.90;;;;;;5027361;28;20033;-60
2023/01/31 02:47:14;;;;;;;29.98;5.25;;;3.90;99.90;;;;;;5023232;28;20133;-61
2023/01/31 02:50:01;;;;;;;23.65;4.88;;;3.90;99.90;;;;;;5024641;28;20112;-62
2023/01/31 02:52:39;;;;;;;34.80;6.00;;;3.90;99.90;;;;;;5017291;28;20025;-59
2023/01/31 02:58:08;;;;;;;25.15;4.63;;;3.90;99.90;;;;;;5024755;28;20396;-61
2023/01/31 03:00:37;;;;;;;26.08;5.32;;;3.60;99.90;;;;;;5022143;28;20040;-60
2023/01/31 03:03:06;;;;;;;26.15;5.53;;;3.70;99.90;;;;;;5023533;28;20060;-58
2023/01/31 03:05:32;;;;;;;28.27;5.30;;;3.70;99.90;;;;;;5025282;28;20404;-63
2023/01/31 03:08:01;;;;;;;24.98;5.95;;;3.80;99.90;;;;;;5026208;28;20140;-62
2023/01/31 03:10:36;;;;;;;22.90;5.35;;;3.80;99.90;;;;;;5011330;28;20173;-60
2023/01/31 03:13:30;;;;;;;20.25;5.18;;;3.80;99.90;;;;;;5024995;28;20052;-58
2023/01/31 03:19:12;;;;;;;25.83;6.30;;;3.70;99.90;;;;;;5021439;28;19978;-61
2023/01/31 03:22:04;;;;;;;27.58;5.32;;;3.80;99.90;;;;;;5027397;28;20469;-60
2023/01/31 03:24:30;;;;;;;27.90;5.28;;;3.80;99.90;;;;;;5005086;28;20125;-62
2023/01/31 03:26:59;;;;;;;22.50;5.35;;;3.60;99.90;;;;;;5025905;28;20394;-60
2023/01/31 03:29:27;;;;;;;26.40;5.80;;;3.70;99.90;;;;;;5025709;28;20041;-59
2023/01/31 03:31:57;;;;;;;21.67;5.68;;;3.60;99.90;;;;;;5023406;28;20499;-62
2023/01/31 03:34:24;;;;;;;23.20;4.97;;;3.80;99.90;;;;;;5016889;28;20452;-62
2023/01/31 03:37:05;;;;;;;25.25;5.30;;;3.60;99.90;;;;;;5026939;28;20547;-62
2023/01/31 03:39:52;;;;;;;22.20;5.20;;;3.50;99.90;;;;;;5025079;28;20030;-60
2023/01/31 03:42:52;;;;;;;28.17;5.82;;;3.50;99.90;;;;;;5030368;28;20500;-62
2023/01/31 03:45:43;;;;;;;21.00;5.45;;;3.60;99.90;;;;;;5021185;28;20072;-62
2023/01/31 03:48:16;;;;;;;29.60;6.47;;;3.70;99.90;;;;;;5021358;28;20049;-60
2023/01/31 03:50:50;;;;;;;23.48;5.65;;;3.70;99.90;;;;;;5023451;28;20607;-62
2023/01/31 03:53:23;;;;;;;21.95;6.03;;;3.80;99.90;;;;;;5021674;28;20128;-61
2023/01/31 03:56:06;;;;;;;24.92;5.88;;;3.60;99.90;;;;;;5025452;28;20076;-62
2023/01/31 03:58:37;;;;;;;;;;;3.70;99.90;;;;;;5026323;28;20040;-61
2023/01/31 04:01:07;;;;;;;27.25;6.05;;;4.00;99.90;;;;;;5026363;28;19909;-61
2023/01/31 04:03:40;;;;;;;29.60;6.53;;;4.00;99.90;;;;;;5029461;28;20498;-61
2023/01/31 04:06:07;;;;;;;26.65;6.70;;;3.90;99.90;;;;;;5025264;28;20038;-60
2023/01/31 04:08:33;;;;;;;26.80;6.68;;;4.00;99.90;;;;;;5025737;28;20554;-62
2023/01/31 04:11:02;;;;;;;26.65;7.18;;;3.90;99.90;;;;;;5020977;28;20037;-62
2023/01/31 04:13:28;;;;;;;30.05;7.78;;;4.00;99.90;;;;;;5022745;28;20550;-62
2023/01/31 04:15:53;;;;;;;28.13;7.10;;;4.00;99.90;;;;;;5024929;28;20038;-62
2023/01/31 04:18:19;;;;;;;23.00;7.20;;;4.10;99.90;;;;;;5018014;28;20038;-60
2023/01/31 04:20:44;;;;;;;30.30;7.38;;;4.20;99.90;;;;;;5030114;28;20076;-62
2023/01/31 04:23:10;;;;;;;31.40;8.25;;;4.20;99.90;;;;;;5028680;28;20033;-62
2023/01/31 04:25:35;;;;;;;39.35;8.13;;;4.20;99.90;;;;;;5029551;28;20041;-60
2023/01/31 04:28:01;;;;;;;29.25;8.32;;;4.20;99.90;;;;;;5026152;28;20025;-55
2023/01/31 04:30:26;;;;;;;37.35;8.43;;;4.20;99.90;;;;;;5021239;28;20537;-63
2023/01/31 04:32:52;;;;;;;26.27;7.78;;;4.30;99.90;;;;;;5031181;28;20037;-57
2023/01/31 04:35:18;;;;;;;32.38;8.55;;;4.30;99.90;;;;;;5025539;28;20148;-61
2023/01/31 04:37:43;;;;;;;29.67;9.32;;;4.30;99.90;;;;;;5028027;28;20071;-60
2023/01/31 04:40:12;;;;;;;26.63;7.97;;;4.20;99.90;;;;;;5029087;28;20037;-62
2023/01/31 04:42:38;;;;;;;32.75;9.02;;;4.10;99.90;;;;;;5029292;28;20481;-60
2023/01/31 04:45:04;;;;;;;34.08;9.02;;;4.20;99.90;;;;;;5027418;28;20041;-62
2023/01/31 04:47:29;;;;;;;30.25;10.23;;;4.30;99.90;;;;;;5023248;28;20072;-62
2023/01/31 04:49:55;;;;;;;29.20;8.95;;;4.30;99.90;;;;;;5026907;28;20107;-59
2023/01/31 04:52:23;;;;;;;32.47;9.32;;;4.30;99.90;;;;;;5028408;28;20119;-59
2023/01/31 04:54:48;;;;;;;29.60;8.73;;;4.40;99.90;;;;;;5026154;28;20044;-56
2023/01/31 04:57:14;;;;;;;34.83;9.98;;;4.40;99.90;;;;;;5028969;28;20034;-61
2023/01/31 04:59:40;;;;;;;35.22;9.60;;;4.50;99.90;;;;;;5029004;28;20030;-59
2023/01/31 05:02:05;;;;;;;29.33;9.35;;;4.50;99.90;;;;;;5032136;28;20040;-60
2023/01/31 05:04:31;;;;;;;31.00;9.80;;;4.40;99.90;;;;;;5026254;28;20054;-59
2023/01/31 05:06:57;;;;;;;31.20;10.02;;;4.40;99.90;;;;;;5018921;28;20416;-58
2023/01/31 05:09:23;;;;;;;35.15;9.93;;;4.40;99.90;;;;;;5029074;28;20069;-58
2023/01/31 05:11:49;;;;;;;36.42;10.10;;;4.40;99.90;;;;;;5030317;28;20044;-62
2023/01/31 05:14:15;;;;;;;35.85;9.43;;;4.50;99.90;;;;;;5024256;28;20030;-62
2023/01/31 05:16:46;;;;;;;26.63;9.77;;;4.40;99.90;;;;;;5027526;28;20029;-62
2023/01/31 05:19:15;;;;;;;33.78;9.98;;;4.50;99.90;;;;;;5027344;28;20033;-62
2023/01/31 05:21:53;;;;;;;34.05;11.27;;;4.60;99.90;;;;;;5028164;28;20033;-62
2023/01/31 05:24:23;;;;;;;36.53;10.65;;;4.50;99.90;;;;;;5020811;28;20041;-62
2023/01/31 05:26:50;;;;;;;33.50;9.82;;;4.60;99.90;;;;;;5028174;28;20030;-62
2023/01/31 05:29:16;;;;;;;30.88;10.05;;;4.50;99.90;;;;;;5019392;28;20560;-61
2023/01/31 05:31:43;;;;;;;30.77;10.80;;;4.50;99.90;;;;;;5029119;28;20036;-57
2023/01/31 05:34:09;;;;;;;36.38;10.50;;;4.50;99.90;;;;;;5024102;28;20030;-55
2023/01/31 05:36:35;;;;;;;37.33;10.35;;;4.60;99.90;;;;;;5028251;28;20049;-59
2023/01/31 05:39:00;;;;;;;29.83;10.07;;;4.50;99.90;;;;;;5025531;28;20496;-62
2023/01/31 05:41:26;;;;;;;34.83;10.75;;;4.60;99.90;;;;;;5029716;28;20061;-60
2023/01/31 05:43:51;;;;;;;28.30;10.88;;;4.60;99.90;;;;;;5027710;28;20555;-59
2023/01/31 05:46:17;;;;;;;29.50;10.85;;;4.60;99.90;;;;;;5027191;28;20491;-58
2023/01/31 05:48:42;;;;;;;36.42;10.82;;;4.60;99.90;;;;;;5023495;28;20029;-61
2023/01/31 05:51:08;;;;;;;35.78;10.48;;;4.60;99.90;;;;;;5029886;28;20025;-63
2023/01/31 05:53:33;;;;;;;34.35;10.95;;;4.60;99.90;;;;;;5025189;28;20084;-62
2023/01/31 05:55:59;;;;;;;31.95;11.82;;;4.60;99.90;;;;;;5028757;28;20029;-62
2023/01/31 05:58:24;;;;;;;31.20;10.40;;;4.70;99.90;;;;;;5025255;28;20064;-62
2023/01/31 06:00:54;;;;;;;35.25;10.43;;;4.60;99.90;;;;;;5026711;28;20096;-63
2023/01/31 06:03:20;;;;;;;40.03;11.07;;;4.40;99.90;;;;;;5023794;28;20087;-58
2023/01/31 06:05:45;;;;;;;32.72;10.68;;;4.40;99.90;;;;;;5032450;28;20033;-61
2023/01/31 06:08:11;;;;;;;35.85;11.43;;;4.60;99.90;;;;;;5022068;28;20072;-61
2023/01/31 06:10:37;;;;;;;33.95;11.00;;;4.60;99.90;;;;;;5022063;28;20030;-60
2023/01/31 06:13:02;;;;;;;38.92;12.35;;;4.60;99.90;;;;;;5022419;28;20033;-60
2023/01/31 06:15:28;;;;;;;31.73;10.60;;;4.60;99.90;;;;;;5025714;28;20029;-59
2023/01/31 06:17:53;;;;;;;33.72;11.07;;;4.70;99.90;;;;;;5025058;28;20645;-60
2023/01/31 06:20:19;;;;;;;33.38;11.73;;;4.70;99.90;;;;;;5023630;28;20057;-62
2023/01/31 06:22:44;;;;;;;32.08;10.25;;;4.70;99.90;;;;;;5027049;28;20052;-58
2023/01/31 06:25:10;;;;;;;30.83;10.27;;;4.60;99.90;;;;;;5026953;28;20045;-62
2023/01/31 06:27:36;;;;;;;28.48;9.90;;;4.60;99.90;;;;;;5019871;28;20029;-59
2023/01/31 06:30:01;;;;;;;39.05;11.60;;;4.70;99.90;;;;;;5024505;28;20045;-56
2023/01/31 06:32:27;;;;;;;34.03;11.05;;;4.70;99.90;;;;;;5027276;28;20120;-61
2023/01/31 06:34:52;;;;;;;36.38;10.90;;;4.70;99.90;;;;;;5026253;28;20128;-61
2023/01/31 06:37:18;;;;;;;37.55;11.05;;;4.80;99.90;;;;;;5018892;28;20041;-62
2023/01/31 06:39:43;;;;;;;29.83;10.05;;;4.80;99.90;;;;;;5023369;28;20481;-59
2023/01/31 06:42:09;;;;;;;35.80;10.43;;;4.80;99.90;;;;;;5027694;28;20207;-59
2023/01/31 06:44:36;;;;;;;34.83;11.15;;;4.80;99.90;;;;;;5025560;28;20026;-61
2023/01/31 06:47:02;;;;;;;26.33;10.00;;;4.80;99.90;;;;;;5019824;28;20074;-62
2023/01/31 06:49:28;;;;;;;35.75;10.85;;;4.70;99.90;;;;;;5026621;28;20574;-62
2023/01/31 06:51:53;;;;;;;32.42;10.15;;;4.70;99.90;;;;;;5026707;28;20029;-62
2023/01/31 06:54:19;;;;;;;39.65;10.65;;;4.70;99.90;;;;;;5022802;28;20175;-58
2023/01/31 06:56:44;;;;;;;36.92;10.90;;;4.80;99.90;;;;;;5029858;28;20496;-62
2023/01/31 06:59:10;;;;;;;33.38;10.40;;;4.80;99.90;;;;;;5025847;28;20068;-55
2023/01/31 07:01:35;;;;;;;30.90;10.30;;;4.90;99.90;;;;;;5023564;28;20084;-61
2023/01/31 07:04:01;;;;;;;32.03;10.05;;;4.80;99.90;;;;;;5022383;28;20084;-58
2023/01/31 07:06:26;;;;;;;32.88;10.75;;;4.90;99.90;;;;;;5011949;28;20029;-59
2023/01/31 07:08:52;;;;;;;28.38;10.30;;;5.00;99.90;;;;;;5026034;28;20164;-61
2023/01/31 07:11:18;;;;;;;39.28;10.63;;;5.00;99.90;;;;;;5022612;28;20120;-62
2023/01/31 07:13:46;;;;;;;33.28;9.82;;;5.00;99.90;;;;;;5018743;28;20025;-58
2023/01/31 07:16:13;;;;;;;38.60;10.38;;;4.90;99.90;;;;;;5024985;28;20044;-59
2023/01/31 07:18:38;;;;;;;30.67;9.68;;;4.80;99.90;;;;;;5022590;28;20103;-60
2023/01/31 07:21:05;;;;;;;35.08;9.98;;;4.80;99.90;;;;;;5026209;28;20489;-62
2023/01/31 07:23:30;;;;;;;29.98;9.23;;;4.80;99.90;;;;;;5026826;28;20053;-62
2023/01/31 07:25:56;;;;;;;32.67;9.63;;;4.90;99.90;;;;;;5024753;28;20131;-60
2023/01/31 07:28:22;;;;;;;32.22;10.18;;;4.90;99.90;;;;;;5025342;28;20485;-61
2023/01/31 07:30:47;;;;;;;41.42;10.85;;;4.90;99.90;;;;;;5024816;28;20028;-59
2023/01/31 07:33:13;;;;;;;33.33;9.85;;;5.00;99.90;;;;;;5021250;28;20058;-58
2023/01/31 07:35:41;;;;;;;32.20;9.35;;;4.90;99.90;;;;;;5025919;28;20473;-59
2023/01/31 07:38:06;;;;;;;30.48;9.95;;;5.00;99.90;;;;;;5017482;28;20048;-61
2023/01/31 07:40:32;;;;;;;32.25;10.25;;;4.90;99.90;;;;;;5022478;28;20025;-63
2023/01/31 07:42:58;;;;;;;33.20;10.35;;;4.90;99.90;;;;;;5022047;28;20025;-62
2023/01/31 07:45:24;;;;;;;31.45;9.23;;;5.00;99.90;;;;;;5021863;28;20034;-63
2023/01/31 07:47:50;;;;;;;26.88;8.77;;;5.00;99.90;;;;;;5025779;28;20042;-62
2023/01/31 07:50:16;;;;;;;29.08;9.63;;;5.10;99.90;;;;;;5023912;28;20532;-62
2023/01/31 07:52:42;;;;;;;30.80;9.05;;;5.20;99.90;;;;;;5029433;28;20144;-61
2023/01/31 07:55:08;;;;;;;29.40;9.05;;;5.20;99.90;;;;;;5028463;28;20041;-59
2023/01/31 07:57:33;;;;;;;41.58;9.82;;;5.20;99.90;;;;;;5021273;28;20037;-60
2023/01/31 07:59:59;;;;;;;27.17;8.30;;;5.20;99.90;;;;;;5025853;28;20046;-62
2023/01/31 08:05:10;;;;;;;27.70;7.82;;;5.20;99.90;;;;;;5024650;28;20060;-62
2023/01/31 08:07:36;;;;;;;33.35;8.95;;;5.20;99.90;;;;;;5020967;28;20635;-58
2023/01/31 08:10:02;;;;;;;23.00;6.95;;;5.30;99.90;;;;;;5025299;28;20052;-60
2023/01/31 08:12:28;;;;;;;34.67;8.27;;;5.30;99.90;;;;;;5025520;28;20178;-63
2023/01/31 08:14:53;;;;;;;24.63;7.50;;;5.40;99.90;;;;;;5026434;28;20044;-62
2023/01/31 08:17:19;;;;;;;24.75;6.82;;;5.40;99.90;;;;;;5026174;28;20036;-60
2023/01/31 08:19:44;;;;;;;26.90;7.38;;;5.40;99.90;;;;;;5020080;28;20143;-62
2023/01/31 08:22:10;;;;;;;26.58;7.13;;;5.40;99.90;;;;;;5023846;28;20588;-62
2023/01/31 08:24:36;;;;;;;22.98;7.47;;;5.40;99.90;;;;;;5023353;28;20033;-60
2023/01/31 08:27:01;;;;;;;29.08;7.18;;;5.40;99.90;;;;;;5018072;28;20057;-57
2023/01/31 08:29:28;;;;;;;24.77;6.88;;;5.40;99.90;;;;;;5029058;28;20048;-62
2023/01/31 08:31:54;;;;;;;27.15;6.50;;;5.40;99.90;;;;;;5024781;28;20120;-60
2023/01/31 08:34:20;;;;;;;25.20;6.65;;;5.50;99.90;;;;;;5020547;28;20034;-63
2023/01/31 08:36:45;;;;;;;19.70;6.35;;;5.50;99.90;;;;;;5026964;28;20034;-63
2023/01/31 08:39:11;;;;;;;28.95;7.10;;;5.50;99.90;;;;;;5021033;28;20555;-61
2023/01/31 08:41:37;;;;;;;20.92;6.15;;;5.50;99.90;;;;;;5021267;28;20068;-63
2023/01/31 08:44:04;;;;;;;24.25;6.55;;;5.50;99.90;;;;;;5026346;28;20485;-62
2023/01/31 08:46:33;;;;;;;21.15;6.15;;;5.60;99.90;;;;;;5025082;28;20032;-62
2023/01/31 08:49:00;;;;;;;30.48;6.95;;;5.60;99.90;;;;;;5019461;28;20128;-62
2023/01/31 08:51:26;;;;;;;25.92;6.20;;;5.50;99.90;;;;;;5015449;28;20049;-62
2023/01/31 08:53:52;;;;;;;24.25;6.82;;;5.50;99.90;;;;;;5020770;28;20552;-61
2023/01/31 08:56:20;;;;;;;18.23;5.53;;;5.50;99.90;;;;;;5027222;28;20121;-61
2023/01/31 08:58:46;;;;;;;26.50;6.43;;;5.50;99.90;;;;;;5022371;28;20036;-59
2023/01/31 09:01:13;;;;;;;24.23;5.50;;;5.50;99.90;;;;;;5021348;28;20150;-61
2023/01/31 09:03:39;;;;;;;25.80;5.90;;;5.60;99.90;;;;;;5015506;28;20034;-61
2023/01/31 09:06:07;;;;;;;22.20;6.18;;;5.50;99.90;;;;;;5026302;28;20560;-58
2023/01/31 09:08:33;;;;;;;24.75;6.57;;;5.50;99.90;;;;;;5024502;28;20037;-59
2023/01/31 09:10:59;;;;;;;20.30;5.80;;;5.60;99.90;;;;;;5029049;28;20115;-61
2023/01/31 09:13:25;;;;;;;29.02;5.65;;;5.70;99.90;;;;;;5024285;28;20465;-63
2023/01/31 09:16:06;;;;;;;24.10;5.78;;;5.70;99.90;;;;;;5027445;28;20397;-62
2023/01/31 09:18:33;;;;;;;16.88;5.43;;;5.70;99.90;;;;;;5023089;28;20050;-60
2023/01/31 09:21:11;;;;;;;23.67;4.88;;;5.80;99.90;;;;;;5020223;28;20494;-61
2023/01/31 09:23:37;;;;;;;17.88;4.45;;;5.80;99.90;;;;;;5027191;28;20042;-61
2023/01/31 09:26:03;;;;;;;52.88;23.88;;;5.80;99.90;;;;;;5022001;28;20444;-63
2023/01/31 09:28:29;;;;;;;29.17;5.82;;;5.80;99.90;;;;;;5024677;28;20103;-62
2023/01/31 09:30:54;;;;;;;25.10;5.30;;;5.90;99.90;;;;;;5026528;28;20500;-57
2023/01/31 09:33:21;;;;;;;20.15;5.15;;;5.80;99.90;;;;;;5021982;28;20033;-63
2023/01/31 09:36:02;;;;;;;23.83;5.38;;;5.90;99.90;;;;;;5026192;28;20041;-62
2023/01/31 09:38:28;;;;;;;16.88;4.40;;;5.90;99.90;;;;;;5014368;28;20045;-62
2023/01/31 09:40:56;;;;;;;23.27;5.35;;;6.00;99.90;;;;;;5022865;28;20699;-63
2023/01/31 09:43:25;;;;;;;21.88;5.15;;;6.00;99.90;;;;;;5021995;28;20045;-62
2023/01/31 09:45:54;;;;;;;23.33;5.35;;;6.10;99.90;;;;;;5025967;28;20076;-58
2023/01/31 09:48:27;;;;;;;19.92;5.28;;;6.10;99.90;;;;;;5014575;28;20041;-56
2023/01/31 09:50:54;;;;;;;22.03;4.30;;;6.20;99.90;;;;;;5024727;28;20030;-61
2023/01/31 09:53:25;;;;;;;22.77;4.88;;;6.20;99.90;;;;;;5020516;28;20045;-63
2023/01/31 09:56:03;;;;;;;24.90;5.57;;;6.10;99.90;;;;;;5027656;28;20392;-63
2023/01/31 09:58:37;;;;;;;20.80;5.63;;;6.10;99.90;;;;;;5022604;28;20688;-63
2023/01/31 10:01:10;;;;;;;17.83;5.00;;;6.10;99.90;;;;;;5023242;28;20500;-62
2023/01/31 10:03:48;;;;;;;;;;;6.10;99.90;;;;;;5001628;28;20038;-58
2023/01/31 10:06:22;;;;;;;20.27;5.68;;;6.10;99.90;;;;;;5022965;28;19963;-63
2023/01/31 10:08:57;;;;;;;23.38;5.57;;;6.20;99.90;;;;;;5024165;28;20045;-61
2023/01/31 10:11:45;;;;;;;20.20;5.38;;;6.20;99.90;;;;;;5013907;28;20040;-61
2023/01/31 10:14:22;;;;;;;16.77;5.65;;;6.30;99.90;;;;;;5015226;28;20429;-63
2023/01/31 10:17:12;;;;;;;22.67;6.70;;;6.40;99.90;;;;;;5026298;28;20125;-61
2023/01/31 10:19:56;;;;;;;21.27;5.78;;;6.40;99.90;;;;;;5020597;28;20036;-60
2023/01/31 10:22:45;;;;;;;28.10;6.53;;;6.40;99.90;;;;;;5020424;28;20053;-62
2023/01/31 10:25:20;;;;;;;23.10;5.25;;;6.40;99.90;;;;;;5020003;28;20029;-61
2023/01/31 10:27:57;;;;;;;19.10;5.68;;;6.50;99.90;;;;;;5023111;28;20045;-61
2023/01/31 10:30:30;;;;;;;16.08;5.53;;;6.40;99.90;;;;;;5021303;28;20025;-57
2023/01/31 10:33:03;;;;;;;18.45;5.70;;;6.50;99.90;;;;;;5023606;28;20062;-61
2023/01/31 10:35:39;;;;;;;22.23;6.03;;;6.60;99.90;;;;;;5023875;28;20072;-58
2023/01/31 10:38:16;;;;;;;21.38;5.63;;;6.60;99.90;;;;;;5018577;28;20407;-61
2023/01/31 10:40:45;;;;;;;19.83;5.55;;;6.60;99.90;;;;;;5011111;28;20041;-60
2023/01/31 10:43:20;;;;;;;24.67;6.60;;;6.80;99.90;;;;;;5023604;28;20566;-61
2023/01/31 10:45:46;;;;;;;22.83;6.55;;;6.70;99.90;;;;;;5025872;28;20152;-62
2023/01/31 10:48:26;;;;;;;16.25;6.40;;;6.70;99.90;;;;;;5015855;28;20072;-61
2023/01/31 10:51:23;;;;;;;21.70;6.40;;;6.70;99.90;;;;;;5023744;28;20487;-61
2023/01/31 10:53:48;;;;;;;20.05;5.85;;;6.70;99.90;;;;;;5016380;28;20033;-58
2023/01/31 10:56:34;;;;;;;17.92;5.45;;;6.80;99.90;;;;;;5018017;28;20034;-62
2023/01/31 10:59:04;;;;;;;20.95;6.70;;;6.80;99.90;;;;;;5025175;28;20037;-60
2023/01/31 11:01:30;;;;;;;26.83;7.43;;;6.80;99.90;;;;;;5019593;28;20118;-61
2023/01/31 11:03:57;;;;;;;21.55;7.53;;;6.80;99.90;;;;;;5021112;28;20481;-61
2023/01/31 11:06:23;;;;;;;20.10;6.85;;;6.80;99.90;;;;;;5030460;28;20033;-62
2023/01/31 11:08:59;;;;;;;24.95;7.95;;;6.70;99.90;;;;;;5021979;28;20033;-61
2023/01/31 11:11:27;;;;;;;28.27;7.68;;;6.80;99.90;;;;;;5013669;28;20544;-60
2023/01/31 11:14:16;;;;;;;19.55;8.10;;;6.80;99.90;;;;;;5015547;28;20551;-62
2023/01/31 11:16:42;;;;;;;25.08;7.72;;;6.80;99.90;;;;;;5023219;28;20046;-60
2023/01/31 11:19:29;;;;;;;21.25;7.43;;;6.80;99.90;;;;;;5019619;28;20455;-58
2023/01/31 11:21:55;;;;;;;19.88;7.78;;;6.70;99.90;;;;;;5020002;28;20034;-62
2023/01/31 11:24:27;;;;;;;22.95;8.70;;;6.70;99.90;;;;;;5019043;28;20375;-62
2023/01/31 11:27:09;;;;;;;18.10;7.70;;;6.70;99.90;;;;;;5020499;28;20814;-61
2023/01/31 11:29:38;;;;;;;20.83;9.10;;;6.80;99.90;;;;;;5016549;28;20052;-62
2023/01/31 11:32:18;;;;;;;25.88;8.57;;;6.70;99.90;;;;;;5012948;28;20517;-61
2023/01/31 11:35:24;;;;;;;22.20;9.25;;;6.70;99.90;;;;;;5019806;28;20044;-63
2023/01/31 11:37:59;;;;;;;22.83;8.90;;;6.80;99.90;;;;;;5017535;28;20033;-61
2023/01/31 11:40:38;;;;;;;25.20;9.40;;;6.80;99.90;;;;;;5019766;28;20605;-61
2023/01/31 11:43:20;;;;;;;21.00;9.40;;;6.80;99.90;;;;;;5022969;28;20570;-63
2023/01/31 11:45:55;;;;;;;23.50;9.02;;;6.80;99.90;;;;;;5028587;28;20440;-62
2023/01/31 11:48:27;;;;;;;22.38;9.77;;;6.90;99.90;;;;;;5020871;28;20523;-62
2023/01/31 11:50:56;;;;;;;23.08;8.88;;;7.00;99.90;;;;;;5021175;28;20033;-59
2023/01/31 11:53:25;;;;;;;24.83;9.18;;;7.00;99.90;;;;;;5020780;28;20405;-60
2023/01/31 11:55:56;;;;;;;23.80;8.80;;;7.00;99.90;;;;;;5023204;28;20030;-62
2023/01/31 11:58:29;;;;;;;25.30;9.18;;;7.00;99.90;;;;;;5025290;28;20052;-62
2023/01/31 12:00:59;;;;;;;20.90;9.57;;;7.00;99.90;;;;;;5027311;28;20048;-59
2023/01/31 12:03:26;;;;;;;24.70;9.65;;;7.00;99.90;;;;;;5015011;28;20700;-62
2023/01/31 12:06:24;;;;;;;23.13;9.57;;;6.90;99.90;;;;;;5007358;28;20065;-63
2023/01/31 12:08:53;;;;;;;21.52;8.70;;;7.00;99.90;;;;;;5021121;28;20042;-63
2023/01/31 12:11:19;;;;;;;26.23;9.35;;;7.00;99.90;;;;;;5023587;28;20038;-62
2023/01/31 12:13:53;;;;;;;23.25;9.93;;;7.00;99.90;;;;;;5020650;28;20048;-61
2023/01/31 12:16:21;;;;;;;28.63;9.60;;;7.10;99.90;;;;;;5019496;28;20029;-61
2023/01/31 12:18:59;;;;;;;23.77;9.45;;;7.00;99.90;;;;;;5016371;28;20041;-61
2023/01/31 12:21:48;;;;;;;21.98;9.80;;;7.10;99.90;;;;;;5016654;28;20045;-62
2023/01/31 12:24:36;;;;;;;23.38;9.45;;;7.30;99.90;;;;;;5012569;28;20060;-61
2023/01/31 12:27:40;;;;;;;22.85;9.68;;;7.40;99.90;;;;;;5026482;28;20081;-55
2023/01/31 12:30:26;;;;;;;;;;;7.30;99.90;;;;;;5009713;28;20037;-59
2023/01/31 12:33:03;;;;;;;24.92;9.60;;;7.10;99.90;;;;;;5022469;28;20341;-58
2023/01/31 12:35:39;;;;;;;21.20;9.25;;;7.20;99.90;;;;;;5021388;28;20481;-62
2023/01/31 12:38:41;;;;;;;26.05;9.93;;;7.20;99.90;;;;;;5018614;28;20535;-62
2023/01/31 12:41:36;;;;;;;23.98;9.48;;;7.40;99.90;;;;;;5026098;28;20036;-60
2023/01/31 12:44:33;;;;;;;23.98;10.27;;;7.30;99.90;;;;;;5025066;28;20098;-62
2023/01/31 12:47:28;;;;;;;22.45;9.20;;;7.30;99.90;;;;;;5023434;28;20026;-61
2023/01/31 12:50:11;;;;;;;26.52;8.63;;;7.30;99.90;;;;;;5003775;28;20026;-61
2023/01/31 12:52:50;;;;;;;21.77;8.73;;;7.30;99.90;;;;;;5028670;28;20037;-61
2023/01/31 12:55:31;;;;;;;27.55;9.23;;;7.30;99.90;;;;;;5021790;28;20042;-61
2023/01/31 12:58:26;;;;;;;25.77;8.30;;;7.20;99.90;;;;;;5027708;28;20041;-62
2023/01/31 13:01:06;;;;;;;20.80;8.30;;;7.20;99.90;;;;;;4990455;28;20040;-62
2023/01/31 13:03:58;;;;;;;24.55;8.65;;;7.20;99.90;;;;;;5022477;28;20507;-62
2023/01/31 13:06:29;;;;;;;20.67;8.43;;;7.20;99.90;;;;;;5019546;28;20512;-62
2023/01/31 13:09:09;;;;;;;21.90;9.02;;;7.30;99.90;;;;;;5017799;28;20377;-62
2023/01/31 13:11:55;;;;;;;30.83;9.27;;;7.40;99.90;;;;;;5024462;28;20540;-60
2023/01/31 13:14:26;;;;;;;22.77;10.13;;;7.30;99.90;;;;;;5018213;28;20485;-62
2023/01/31 13:16:57;;;;;;;26.02;10.23;;;7.20;99.90;;;;;;5026186;28;20041;-61